Time;durP1;ratioP1;P1;durP2;ratioP2;P2;SDS_P1;SDS_P2;PMS_P1;PMS_P2;Temp;Humidity;BMP_temperature;BMP_pressure;BME280_temperature;BME280_humidity;BME280_pressure;Samples;Min_cycle;Max_cycle;Signal;HPM_P1;HPM_P2
2021/04/03 00:00:25;;;;;;;1.03;1.03;;;8.10;1.00;;;;;;5060742;28;20456;-74
2021/04/03 00:02:52;;;;;;;3.90;1.10;;;8.20;1.00;;;;;;5069764;28;20464;-74
2021/04/03 00:05:19;;;;;;;0.97;0.97;;;8.20;1.00;;;;;;5073982;28;20883;-71
2021/04/03 00:07:45;;;;;;;1.13;0.90;;;;;;;;;;5062942;28;20880;-71
2021/04/03 00:10:17;;;;;;;1.53;1.43;;;8.20;1.00;;;;;;5069964;28;20476;-71
2021/04/03 00:12:44;;;;;;;1.97;1.17;;;;;;;;;;5054158;28;20453;-71
2021/04/03 00:15:12;;;;;;;1.20;1.10;;;8.10;1.00;;;;;;5063204;28;20490;-71
2021/04/03 00:17:43;;;;;;;11.40;1.50;;;8.00;1.00;;;;;;5069046;28;20899;-71
2021/04/03 00:20:12;;;;;;;2.30;1.30;;;8.10;1.00;;;;;;5052403;28;20469;-71
2021/04/03 00:22:38;;;;;;;2.60;1.10;;;8.20;1.00;;;;;;5080356;28;20780;-71
2021/04/03 00:25:06;;;;;;;0.90;0.80;;;8.00;1.00;;;;;;5053034;28;20395;-71
2021/04/03 00:27:32;;;;;;;0.90;0.90;;;;;;;;;;5053594;28;20763;-71
2021/04/03 00:30:14;;;;;;;3.53;0.90;;;;;;;;;;5067767;28;20422;-71
2021/04/03 00:33:02;;;;;;;3.30;1.17;;;8.10;1.00;;;;;;5072435;28;20449;-71
2021/04/03 00:35:39;;;;;;;1.00;1.00;;;8.10;1.00;;;;;;5053500;28;20429;-74
2021/04/03 00:38:07;;;;;;;3.07;1.03;;;8.10;1.00;;;;;;5053314;28;20736;-71
2021/04/03 00:40:36;;;;;;;1.63;1.10;;;8.10;1.00;;;;;;5053183;28;20434;-71
2021/04/03 00:43:04;;;;;;;2.23;1.20;;;8.10;1.00;;;;;;5061213;28;20442;-71
2021/04/03 00:45:30;;;;;;;2.50;1.07;;;8.20;1.00;;;;;;5071545;28;20426;-71
2021/04/03 00:47:55;;;;;;;2.20;1.50;;;8.20;1.00;;;;;;5067428;28;20558;-71
2021/04/03 00:50:25;;;;;;;1.20;1.20;;;8.10;1.00;;;;;;5064188;28;20877;-71
2021/04/03 00:52:51;;;;;;;2.27;1.13;;;8.10;1.00;;;;;;5069977;28;20216;-71
2021/04/03 00:55:17;;;;;;;12.20;1.30;;;8.10;1.00;;;;;;5064966;28;20433;-71
2021/04/03 00:57:43;;;;;;;1.43;1.33;;;8.00;1.00;;;;;;5065005;28;20237;-71
2021/04/03 01:00:11;;;;;;;1.27;1.17;;;8.00;1.00;;;;;;5053560;28;20505;-71
2021/04/03 01:02:37;;;;;;;5.13;1.13;;;;;;;;;;5061155;28;20893;-71
2021/04/03 01:05:12;;;;;;;3.23;0.90;;;7.80;1.00;;;;;;5069632;28;20506;-74
2021/04/03 01:07:38;;;;;;;1.43;1.10;;;7.90;1.00;;;;;;5053265;28;20895;-74
2021/04/03 01:10:08;;;;;;;1.57;1.17;;;7.80;1.00;;;;;;5053955;28;20413;-74
2021/04/03 01:12:54;;;;;;;5.10;1.33;;;7.80;1.00;;;;;;5061385;28;20508;-74
2021/04/03 01:15:40;;;;;;;1.87;1.10;;;7.80;1.00;;;;;;5074368;28;20437;-74
2021/04/03 01:18:27;;;;;;;3.90;1.30;;;7.70;1.00;;;;;;5074400;28;20516;-74
2021/04/03 01:21:18;;;;;;;3.40;1.57;;;7.70;1.00;;;;;;5062910;28;20456;-74
2021/04/03 01:23:53;;;;;;;2.83;1.60;;;7.70;1.00;;;;;;5070205;28;20417;-74
2021/04/03 01:26:28;;;;;;;8.23;1.73;;;7.60;1.00;;;;;;5074655;28;20428;-74
2021/04/03 01:29:12;;;;;;;1.47;1.37;;;7.50;1.00;;;;;;5076297;28;20459;-74
2021/04/03 01:31:40;;;;;;;4.00;1.37;;;7.50;1.00;;;;;;5069809;28;20418;-74
2021/04/03 01:34:12;;;;;;;3.00;1.33;;;7.50;1.00;;;;;;5075066;28;20417;-71
2021/04/03 01:36:42;;;;;;;3.20;1.40;;;7.50;1.00;;;;;;5069816;28;20417;-71
2021/04/03 01:39:13;;;;;;;1.50;1.27;;;7.60;1.00;;;;;;5058698;28;20422;-71
2021/04/03 01:41:42;;;;;;;6.50;1.60;;;7.60;1.00;;;;;;5056202;28;20473;-71
2021/04/03 01:44:12;;;;;;;1.53;1.37;;;7.60;1.00;;;;;;5072202;28;20414;-71
2021/04/03 01:46:39;;;;;;;2.20;1.40;;;7.70;1.00;;;;;;5075901;28;20394;-71
2021/04/03 01:49:10;;;;;;;3.03;1.60;;;7.60;1.00;;;;;;5069258;28;20466;-72
2021/04/03 01:51:37;;;;;;;5.60;1.90;;;7.70;1.00;;;;;;5073617;28;20583;-71
2021/04/03 01:54:05;;;;;;;3.30;1.57;;;7.60;1.00;;;;;;5058770;28;20782;-71
2021/04/03 01:56:32;;;;;;;5.57;1.70;;;7.50;1.00;;;;;;5075321;28;20409;-71
2021/04/03 01:58:59;;;;;;;3.60;1.70;;;7.60;1.00;;;;;;5072931;28;20414;-71
2021/04/03 02:01:26;;;;;;;1.10;1.00;;;7.50;1.00;;;;;;5058914;28;20452;-71
2021/04/03 02:03:52;;;;;;;9.53;1.70;;;7.60;1.00;;;;;;5061949;28;20877;-71
2021/04/03 02:06:19;;;;;;;3.27;1.93;;;7.60;1.00;;;;;;5055985;28;20387;-71
2021/04/03 02:08:48;;;;;;;4.23;1.53;;;7.50;1.00;;;;;;5056168;28;20414;-71
2021/04/03 02:11:14;;;;;;;3.07;2.13;;;7.50;1.00;;;;;;5055513;28;20382;-71
2021/04/03 02:13:41;;;;;;;1.93;1.70;;;7.60;1.00;;;;;;5055917;28;20410;-71
2021/04/03 02:16:07;;;;;;;5.27;1.40;;;7.60;1.00;;;;;;5072897;28;20946;-71
2021/04/03 02:18:34;;;;;;;3.13;1.60;;;7.60;1.00;;;;;;5069941;28;20449;-71
2021/04/03 02:21:09;;;;;;;1.60;1.50;;;7.70;1.00;;;;;;5068652;28;20464;-74
2021/04/03 02:23:36;;;;;;;5.00;1.60;;;7.80;1.00;;;;;;5066867;28;20425;-74
2021/04/03 02:26:08;;;;;;;1.97;1.47;;;7.70;1.00;;;;;;5060867;28;20402;-74
2021/04/03 02:28:36;;;;;;;2.70;1.67;;;7.80;1.00;;;;;;5062569;28;20908;-74
2021/04/03 02:31:02;;;;;;;3.03;2.07;;;;;;;;;;5070405;28;20744;-74
2021/04/03 02:33:28;;;;;;;1.73;1.63;;;;;;;;;;5065292;28;20818;-74
2021/04/03 02:35:54;;;;;;;6.00;1.67;;;;;;;;;;5055431;28;20391;-71
2021/04/03 02:38:20;;;;;;;3.80;1.80;;;7.60;1.00;;;;;;5062364;28;20441;-71
2021/04/03 02:40:46;;;;;;;9.97;1.70;;;7.60;1.00;;;;;;5074908;28;20472;-71
2021/04/03 02:43:25;;;;;;;3.47;1.53;;;;;;;;;;5065195;28;20163;-71
2021/04/03 02:46:07;;;;;;;2.03;1.50;;;7.40;1.00;;;;;;5068936;28;20755;-71
2021/04/03 02:48:37;;;;;;;2.47;1.70;;;7.30;1.00;;;;;;5073354;28;20904;-71
2021/04/03 02:51:05;;;;;;;3.43;1.90;;;7.30;1.00;;;;;;5061885;28;20437;-71
2021/04/03 02:53:32;;;;;;;4.43;1.60;;;7.30;1.00;;;;;;5055122;28;20407;-71
2021/04/03 02:56:05;;;;;;;3.87;1.97;;;7.20;1.00;;;;;;5054702;28;20405;-71
2021/04/03 02:58:34;;;;;;;4.93;1.77;;;7.10;1.00;;;;;;5055215;28;20475;-71
2021/04/03 03:01:01;;;;;;;4.37;1.57;;;7.10;1.00;;;;;;5054649;28;20548;-71
2021/04/03 03:03:30;;;;;;;2.13;1.60;;;7.10;1.00;;;;;;5061127;28;20441;-71
2021/04/03 03:05:57;;;;;;;1.57;1.47;;;7.10;1.00;;;;;;5054736;28;20547;-71
2021/04/03 03:08:26;;;;;;;3.23;1.67;;;7.00;1.00;;;;;;5054516;28;20426;-71
2021/04/03 03:10:53;;;;;;;3.83;1.60;;;6.90;1.00;;;;;;5054427;28;20401;-71
2021/04/03 03:13:20;;;;;;;2.60;1.70;;;6.90;1.00;;;;;;5054296;28;20414;-71
2021/04/03 03:15:46;;;;;;;3.53;2.27;;;6.80;1.00;;;;;;5054208;28;20514;-71
2021/04/03 03:18:14;;;;;;;7.17;1.53;;;6.80;1.00;;;;;;5058927;28;20470;-71
2021/04/03 03:20:40;;;;;;;4.00;1.90;;;;;;;;;;5069783;28;20498;-74
2021/04/03 03:23:08;;;;;;;2.60;1.90;;;6.60;1.00;;;;;;5065327;28;20727;-74
2021/04/03 03:25:34;;;;;;;4.50;1.57;;;6.50;1.00;;;;;;5066208;28;20742;-74
2021/04/03 03:28:00;;;;;;;2.70;1.50;;;6.40;1.00;;;;;;5068004;28;20447;-74
2021/04/03 03:30:32;;;;;;;8.10;2.10;;;6.30;1.00;;;;;;5053901;28;20171;-74
2021/04/03 03:32:58;;;;;;;5.97;1.57;;;6.20;1.00;;;;;;5057626;28;20977;-74
2021/04/03 03:35:24;;;;;;;1.27;1.17;;;;;;;;;;5072311;28;20417;-71
2021/04/03 03:37:52;;;;;;;3.93;1.50;;;6.20;1.00;;;;;;5067206;28;20468;-71
2021/04/03 03:40:19;;;;;;;6.33;2.03;;;6.20;1.00;;;;;;5053809;28;21011;-71
2021/04/03 03:42:46;;;;;;;1.67;1.40;;;6.10;1.00;;;;;;5054159;28;20446;-71
2021/04/03 03:45:13;;;;;;;5.30;1.97;;;6.20;1.00;;;;;;5060747;28;20527;-71
2021/04/03 03:47:40;;;;;;;2.90;1.57;;;;;;;;;;5068050;28;20550;-71
2021/04/03 03:50:07;;;;;;;4.33;1.80;;;6.20;1.00;;;;;;5070093;28;20948;-71
2021/04/03 03:52:34;;;;;;;1.20;1.13;;;6.20;1.00;;;;;;5059363;28;20460;-74
2021/04/03 03:55:00;;;;;;;2.83;1.43;;;6.30;1.00;;;;;;5053819;28;20948;-74
2021/04/03 03:57:25;;;;;;;4.30;1.63;;;6.30;1.00;;;;;;5057633;28;20572;-74
2021/04/03 03:59:51;;;;;;;4.07;1.60;;;6.40;1.00;;;;;;5053624;28;20197;-74
2021/04/03 04:02:17;;;;;;;3.10;1.60;;;6.40;1.00;;;;;;5067241;28;20159;-74
2021/04/03 04:04:43;;;;;;;3.47;1.90;;;6.50;1.00;;;;;;5068400;28;20216;-74
2021/04/03 04:07:09;;;;;;;4.40;1.90;;;;;;;;;;5054089;28;20422;-71
2021/04/03 04:09:35;;;;;;;4.90;1.80;;;6.60;1.00;;;;;;5053542;28;20701;-71
2021/04/03 04:12:05;;;;;;;6.10;2.07;;;6.70;1.00;;;;;;5053436;28;20866;-71
2021/04/03 04:14:35;;;;;;;4.70;1.73;;;6.70;1.00;;;;;;5053331;28;20433;-71
2021/04/03 04:17:01;;;;;;;1.40;1.30;;;;;;;;;;5068917;28;20417;-71
2021/04/03 04:19:27;;;;;;;6.73;1.90;;;6.80;1.00;;;;;;5067718;28;20422;-71
2021/04/03 04:21:54;;;;;;;1.63;1.30;;;;;;;;;;5066039;28;20441;-74
2021/04/03 04:24:25;;;;;;;3.03;1.70;;;6.90;1.00;;;;;;5068414;28;20761;-74
2021/04/03 04:26:52;;;;;;;4.50;1.83;;;6.90;1.00;;;;;;5073310;28;20737;-74
2021/04/03 04:29:19;;;;;;;3.50;1.60;;;6.80;1.00;;;;;;5073631;28;20814;-74
2021/04/03 04:31:45;;;;;;;2.43;1.30;;;6.80;1.00;;;;;;5057993;28;20497;-74
2021/04/03 04:34:11;;;;;;;4.83;1.57;;;6.70;1.00;;;;;;5066013;28;20515;-74
2021/04/03 04:36:37;;;;;;;1.20;1.10;;;;;;;;;;5073559;28;20408;-71
2021/04/03 04:39:03;;;;;;;4.27;1.53;;;6.70;1.00;;;;;;5072475;28;20177;-71
2021/04/03 04:41:28;;;;;;;1.50;1.40;;;6.70;1.00;;;;;;5073203;28;20769;-71
2021/04/03 04:43:54;;;;;;;1.33;1.00;;;6.60;1.00;;;;;;5071707;28;20418;-71
2021/04/03 04:46:20;;;;;;;1.77;1.30;;;6.70;1.00;;;;;;5072860;28;20563;-71
2021/04/03 04:48:46;;;;;;;3.73;1.10;;;;;;;;;;5073556;28;20551;-71
2021/04/03 04:51:12;;;;;;;2.40;1.83;;;;;;;;;;5069172;28;20429;-74
2021/04/03 04:53:38;;;;;;;2.60;1.47;;;6.70;1.00;;;;;;5072629;28;20421;-74
2021/04/03 04:56:04;;;;;;;2.10;1.50;;;6.80;1.00;;;;;;5077192;28;20397;-74
2021/04/03 04:58:30;;;;;;;2.57;1.67;;;;;;;;;;5058203;28;20253;-74
2021/04/03 05:01:01;;;;;;;4.20;2.20;;;6.90;1.00;;;;;;5057095;28;20979;-74
2021/04/03 05:03:28;;;;;;;5.07;1.97;;;6.90;1.00;;;;;;5065283;28;20441;-74
2021/04/03 05:05:54;;;;;;;3.13;1.73;;;7.00;1.00;;;;;;5077109;28;20575;-72
2021/04/03 05:08:20;;;;;;;3.50;2.07;;;;;;;;;;5076185;28;20500;-71
2021/04/03 05:10:46;;;;;;;8.33;2.00;;;7.00;1.00;;;;;;5074340;28;20421;-71
2021/04/03 05:13:12;;;;;;;8.00;1.80;;;;;;;;;;5066317;28;20753;-71
2021/04/03 05:15:37;;;;;;;1.80;1.20;;;6.90;1.00;;;;;;5056580;28;20260;-71
2021/04/03 05:18:03;;;;;;;2.13;1.90;;;6.80;1.00;;;;;;5070046;28;20892;-71
2021/04/03 05:20:30;;;;;;;1.20;1.10;;;;;;;;;;5075668;28;20191;-71
2021/04/03 05:22:55;;;;;;;5.43;1.40;;;6.70;1.00;;;;;;5067969;28;20792;-74
2021/04/03 05:25:22;;;;;;;5.73;1.60;;;;;;;;;;5074758;28;20420;-74
2021/04/03 05:27:48;;;;;;;3.03;1.37;;;;;;;;;;5074777;28;20178;-74
2021/04/03 05:34:12;;;;;;;4.33;1.33;;;6.50;1.00;;;;;;5072911;28;20405;-81
2021/04/03 05:40:18;;;;;;;1.20;1.10;;;6.40;1.00;;;;;;5060190;28;20464;-78
2021/04/03 05:42:46;;;;;;;5.03;1.77;;;6.40;1.00;;;;;;5071315;28;20504;-71
2021/04/03 05:45:16;;;;;;;3.70;1.77;;;6.40;1.00;;;;;;5069154;28;20413;-71
2021/04/03 05:47:42;;;;;;;3.67;1.47;;;6.50;1.00;;;;;;5065525;28;20799;-72
2021/04/03 05:50:09;;;;;;;3.93;1.30;;;6.40;1.00;;;;;;5075763;28;20409;-71
2021/04/03 05:52:37;;;;;;;3.17;1.70;;;6.40;1.00;;;;;;5068947;28;20414;-74
2021/04/03 05:55:04;;;;;;;3.80;1.60;;;6.20;1.00;;;;;;5075691;28;20930;-74
2021/04/03 05:57:54;;;;;;;5.03;1.53;;;6.10;1.00;;;;;;5062712;28;20421;-81
2021/04/03 06:00:21;;;;;;;5.93;1.10;;;6.00;1.00;;;;;;5063782;28;20557;-74
2021/04/03 06:02:47;;;;;;;8.50;1.87;;;;;;;;;;5075776;28;20394;-74
2021/04/03 06:05:13;;;;;;;5.87;1.20;;;;;;;;;;5075748;28;20774;-74
2021/04/03 06:07:40;;;;;;;1.00;0.90;;;5.90;1.00;;;;;;5058675;28;20807;-74
2021/04/03 06:10:08;;;;;;;6.10;1.47;;;5.90;1.00;;;;;;5055583;28;20508;-74
2021/04/03 06:12:42;;;;;;;6.03;1.63;;;5.90;1.00;;;;;;5056153;28;20428;-74
2021/04/03 06:15:15;;;;;;;4.53;2.30;;;5.80;1.00;;;;;;5055734;28;20439;-74
2021/04/03 06:17:41;;;;;;;5.50;1.80;;;;;;;;;;5055336;28;20430;-74
2021/04/03 06:20:08;;;;;;;15.30;2.47;;;5.80;1.00;;;;;;5065111;28;20448;-74
2021/04/03 06:22:47;;;;;;;6.20;1.70;;;5.90;1.00;;;;;;5072002;28;20889;-74
2021/04/03 06:25:14;;;;;;;4.83;1.20;;;5.90;1.00;;;;;;5055109;28;20422;-74
2021/04/03 06:27:43;;;;;;;4.97;1.10;;;5.90;1.00;;;;;;5061244;28;20823;-74
2021/04/03 06:30:34;;;;;;;4.93;1.83;;;6.00;1.00;;;;;;5073822;28;20420;-74
2021/04/03 06:33:17;;;;;;;2.40;1.17;;;;;;;;;;5070259;28;20429;-74
2021/04/03 06:35:44;;;;;;;10.60;2.17;;;6.10;1.00;;;;;;5075294;28;20423;-74
2021/04/03 06:38:24;;;;;;;3.13;1.17;;;6.00;1.00;;;;;;5075461;28;20397;-71
2021/04/03 06:40:50;;;;;;;5.70;1.50;;;6.10;1.00;;;;;;5074509;28;20456;-71
2021/04/03 06:43:19;;;;;;;5.00;2.27;;;6.20;1.00;;;;;;5056421;28;20927;-71
2021/04/03 06:45:49;;;;;;;2.03;1.00;;;6.20;1.00;;;;;;5055359;28;20418;-71
2021/04/03 06:48:15;;;;;;;6.77;1.17;;;6.20;1.00;;;;;;5072550;28;20813;-71
2021/04/03 06:51:01;;;;;;;5.03;1.30;;;6.20;1.00;;;;;;5070006;28;20457;-76
2021/04/03 06:53:31;;;;;;;4.97;1.37;;;6.20;1.00;;;;;;5073670;28;20417;-76
2021/04/03 06:56:26;;;;;;;2.23;1.10;;;6.30;1.00;;;;;;5074928;28;20398;-76
2021/04/03 06:59:13;;;;;;;9.03;1.30;;;6.40;1.00;;;;;;5055226;28;20915;-76
2021/04/03 07:01:56;;;;;;;2.70;1.37;;;6.40;1.00;;;;;;5054692;28;20453;-72
2021/04/03 07:04:27;;;;;;;4.50;1.43;;;6.50;1.00;;;;;;5053528;28;20445;-71
2021/04/03 07:06:56;;;;;;;3.57;1.20;;;6.60;1.00;;;;;;5054839;28;20401;-72
2021/04/03 07:10:06;;;;;;;5.03;1.57;;;6.70;1.00;;;;;;5055720;28;20773;-81
2021/04/03 07:19:17;;;;;;;6.47;1.77;;;6.60;1.00;;;;;;5054488;28;20353;-79
2021/04/03 07:22:07;;;;;;;1.50;1.30;;;6.80;1.00;;;;;;5063683;28;20429;-79
2021/04/03 07:24:35;;;;;;;2.30;1.27;;;6.90;1.00;;;;;;5072152;28;20435;-73
2021/04/03 07:27:03;;;;;;;2.80;1.30;;;6.90;1.00;;;;;;5074093;28;20924;-73
2021/04/03 07:29:44;;;;;;;4.70;1.10;;;6.90;1.00;;;;;;5074229;28;20404;-72
2021/04/03 07:32:38;;;;;;;5.57;1.70;;;7.10;1.00;;;;;;5073926;28;20396;-73
2021/04/03 07:35:22;;;;;;;2.60;1.30;;;7.20;1.00;;;;;;5059250;28;20429;-73
2021/04/03 07:37:49;;;;;;;10.67;1.70;;;7.20;1.00;;;;;;5054410;28;20759;-74
2021/04/03 07:40:43;;;;;;;4.53;1.10;;;7.30;1.00;;;;;;5064686;28;20459;-74
2021/04/03 07:43:36;;;;;;;9.50;1.70;;;7.30;1.00;;;;;;5069710;28;20908;-74
2021/04/03 07:46:13;;;;;;;13.33;1.27;;;7.30;1.00;;;;;;5066084;28;20413;-74
2021/04/03 07:48:47;;;;;;;10.10;1.33;;;7.40;1.00;;;;;;5074024;28;20396;-74
2021/04/03 07:51:39;;;;;;;11.17;1.50;;;7.50;1.00;;;;;;5074002;28;20400;-74
2021/04/03 07:54:05;;;;;;;7.70;1.30;;;7.40;1.00;;;;;;5029947;28;20526;-71
2021/04/03 07:56:52;;;;;;;5.13;1.67;;;;;;;;;;5031079;28;20507;-71
2021/04/03 07:59:38;;;;;;;4.30;1.70;;;7.30;1.00;;;;;;5031398;28;20763;-71
2021/04/03 08:02:05;;;;;;;12.20;2.20;;;7.50;1.00;;;;;;5029485;28;20457;-71
2021/04/03 08:04:31;;;;;;;3.00;2.07;;;7.50;1.00;;;;;;5024297;28;20514;-71
2021/04/03 08:07:01;;;;;;;3.63;1.37;;;7.60;1.00;;;;;;5014494;28;20412;-71
2021/04/03 08:09:31;;;;;;;8.33;1.13;;;7.80;1.00;;;;;;5016855;28;20881;-74
2021/04/03 08:12:13;;;;;;;9.33;1.70;;;7.80;1.00;;;;;;5026292;28;20741;-74
2021/04/03 08:14:42;;;;;;;2.87;1.07;;;7.90;1.00;;;;;;5029429;28;20496;-74
2021/04/03 08:17:09;;;;;;;6.93;1.70;;;7.90;1.00;;;;;;5020630;28;20412;-74
2021/04/03 08:19:37;;;;;;;3.43;1.20;;;8.00;1.00;;;;;;5011007;28;20447;-74
2021/04/03 08:22:08;;;;;;;7.30;2.10;;;7.90;1.00;;;;;;5011734;28;20440;-74
2021/04/03 08:24:37;;;;;;;6.17;1.70;;;8.10;1.00;;;;;;5028009;28;20435;-74
2021/04/03 08:27:03;;;;;;;3.67;1.43;;;8.00;1.00;;;;;;5027860;28;20446;-74
2021/04/03 08:29:38;;;;;;;4.47;1.07;;;8.10;1.00;;;;;;5024628;28;20404;-74
2021/04/03 08:32:06;;;;;;;1.77;1.43;;;8.10;1.00;;;;;;5049548;28;20479;-76
2021/04/03 08:34:32;;;;;;;5.07;1.73;;;8.20;1.00;;;;;;5053523;28;20904;-74
2021/04/03 08:36:58;;;;;;;4.67;1.80;;;8.30;1.00;;;;;;5059173;28;20758;-74
2021/04/03 08:39:26;;;;;;;3.77;1.77;;;8.40;1.00;;;;;;5073407;28;20931;-71
2021/04/03 08:41:55;;;;;;;2.33;0.80;;;8.30;1.00;;;;;;5073063;28;20429;-71
2021/04/03 08:44:30;;;;;;;3.87;1.10;;;8.50;1.00;;;;;;5073234;28;20501;-71
2021/04/03 08:47:02;;;;;;;4.57;1.50;;;8.60;1.00;;;;;;5073046;28;20443;-70
2021/04/03 08:49:36;;;;;;;2.03;1.03;;;8.70;1.00;;;;;;5072037;28;20799;-71
2021/04/03 08:52:04;;;;;;;5.60;2.03;;;8.80;1.00;;;;;;5071019;28;20817;-71
2021/04/03 08:54:43;;;;;;;3.00;1.77;;;8.90;1.00;;;;;;5072914;28;20784;-71
2021/04/03 08:57:35;;;;;;;11.03;1.90;;;8.90;1.00;;;;;;5072378;28;20413;-71
2021/04/03 09:00:02;;;;;;;4.40;1.63;;;8.80;1.00;;;;;;5070315;28;20469;-71
2021/04/03 09:02:29;;;;;;;4.43;1.53;;;;;;;;;;5072176;28;20891;-71
2021/04/03 09:04:55;;;;;;;7.83;1.23;;;;;;;;;;5072397;28;20390;-71
2021/04/03 09:07:34;;;;;;;5.87;1.80;;;8.90;1.00;;;;;;5070978;28;20863;-71
2021/04/03 09:10:08;;;;;;;3.70;1.50;;;9.00;1.00;;;;;;5072627;28;20397;-71
2021/04/03 09:12:34;;;;;;;5.63;1.10;;;;;;;;;;5071992;28;20431;-71
2021/04/03 09:15:00;;;;;;;4.27;1.90;;;9.00;1.00;;;;;;5072066;28;20892;-71
2021/04/03 09:17:27;;;;;;;2.93;1.57;;;9.10;1.00;;;;;;5055769;28;20600;-74
2021/04/03 09:20:13;;;;;;;5.00;2.00;;;9.20;1.00;;;;;;5052126;28;20231;-74
2021/04/03 09:22:42;;;;;;;2.10;1.43;;;9.10;1.00;;;;;;5066567;28;20500;-74
2021/04/03 09:25:13;;;;;;;2.00;1.60;;;9.10;1.00;;;;;;5056883;28;20436;-74
2021/04/03 09:27:40;;;;;;;4.47;1.40;;;;;;;;;;5070736;28;20429;-74
2021/04/03 09:30:13;;;;;;;8.27;2.60;;;9.40;1.00;;;;;;5071943;28;20393;-74
2021/04/03 09:32:43;;;;;;;5.40;1.63;;;9.50;1.00;;;;;;5075231;28;20938;-71
2021/04/03 09:35:11;;;;;;;2.50;1.70;;;9.50;1.00;;;;;;5075630;28;20397;-71
2021/04/03 09:37:37;;;;;;;4.80;1.47;;;;;;;;;;5075482;28;20881;-71
2021/04/03 09:40:06;;;;;;;1.87;1.20;;;9.60;1.00;;;;;;5075752;28;20501;-71
2021/04/03 09:42:33;;;;;;;10.93;2.20;;;;;;;;;;5075394;28;20923;-71
2021/04/03 09:45:00;;;;;;;3.87;1.30;;;9.70;1.00;;;;;;5075394;28;20507;-71
2021/04/03 09:47:27;;;;;;;5.47;2.30;;;9.80;1.00;;;;;;5075297;28;20398;-71
2021/04/03 09:49:53;;;;;;;5.20;2.13;;;;;;;;;;5075197;28;20433;-71
2021/04/03 09:52:19;;;;;;;1.93;1.27;;;;;;;;;;5074541;28;20394;-71
2021/04/03 09:54:47;;;;;;;8.97;2.07;;;10.00;1.00;;;;;;5075497;28;20472;-71
2021/04/03 09:57:14;;;;;;;6.70;1.90;;;10.00;1.00;;;;;;5075103;28;20454;-71
2021/04/03 09:59:41;;;;;;;4.97;1.67;;;10.00;1.00;;;;;;5075076;28;20463;-71
2021/04/03 10:02:08;;;;;;;10.17;1.77;;;;;;;;;;5075009;28;20393;-71
2021/04/03 10:04:34;;;;;;;24.73;2.37;;;;;;;;;;5074935;28;20416;-71
2021/04/03 10:07:00;;;;;;;9.63;1.80;;;10.10;1.00;;;;;;5071303;28;20760;-71
2021/04/03 10:09:27;;;;;;;9.07;2.70;;;10.10;1.00;;;;;;5075735;28;20413;-72
2021/04/03 10:11:53;;;;;;;5.57;2.00;;;10.20;1.00;;;;;;5074023;28;20428;-72
2021/04/03 10:14:20;;;;;;;3.73;1.60;;;10.20;1.00;;;;;;5074319;28;20414;-70
2021/04/03 10:16:46;;;;;;;5.57;1.20;;;10.50;1.00;;;;;;5075934;28;20419;-71
2021/04/03 10:19:12;;;;;;;2.97;1.37;;;10.60;1.00;;;;;;5075592;28;20884;-71
2021/04/03 10:21:38;;;;;;;3.73;1.83;;;;;;;;;;5074837;28;20661;-71
2021/04/03 10:24:05;;;;;;;10.97;2.20;;;10.80;1.00;;;;;;5061968;28;20848;-71
2021/04/03 10:26:32;;;;;;;3.07;1.70;;;;;;;;;;5074657;28;20489;-71
2021/04/03 10:28:57;;;;;;;3.70;2.17;;;10.90;1.00;;;;;;5065428;28;20469;-71
2021/04/03 10:31:24;;;;;;;10.83;2.97;;;;;;;;;;5057982;28;20919;-71
2021/04/03 10:33:49;;;;;;;3.73;1.00;;;11.20;1.00;;;;;;5075121;28;20688;-71
2021/04/03 10:36:16;;;;;;;1.90;1.17;;;11.10;1.00;;;;;;5075094;28;20400;-71
2021/04/03 10:38:47;;;;;;;5.17;1.83;;;11.10;1.00;;;;;;5074365;28;20176;-72
2021/04/03 10:41:13;;;;;;;6.57;2.20;;;11.20;1.00;;;;;;5075096;28;20501;-74
2021/04/03 10:43:39;;;;;;;5.53;1.87;;;11.40;1.00;;;;;;5070531;28;20428;-74
2021/04/03 10:46:08;;;;;;;5.50;1.83;;;;;;;;;;5074955;28;20393;-74
2021/04/03 10:48:37;;;;;;;2.73;1.57;;;11.60;1.00;;;;;;5075059;28;20398;-74
2021/04/03 10:51:07;;;;;;;2.70;1.50;;;11.70;1.00;;;;;;5074907;28;20478;-74
2021/04/03 10:53:33;;;;;;;4.23;1.37;;;11.80;1.00;;;;;;5065772;28;20418;-74
2021/04/03 10:55:59;;;;;;;2.03;1.40;;;11.80;1.00;;;;;;5055231;28;20387;-71
2021/04/03 10:58:25;;;;;;;2.60;1.50;;;;;;;;;;5055162;28;20513;-71
2021/04/03 11:00:51;;;;;;;3.13;1.30;;;12.10;1.00;;;;;;5071994;28;20202;-71
2021/04/03 11:03:17;;;;;;;5.90;1.90;;;;;;;;;;5073335;28;20452;-71
2021/04/03 11:05:43;;;;;;;4.10;1.20;;;12.20;1.00;;;;;;5074257;28;20171;-73
2021/04/03 11:08:09;;;;;;;2.63;1.20;;;12.30;1.00;;;;;;5074557;28;20372;-71
2021/04/03 11:10:34;;;;;;;5.00;1.40;;;12.30;1.00;;;;;;5074799;28;20163;-74
2021/04/03 11:13:00;;;;;;;1.90;1.20;;;12.50;1.00;;;;;;5074538;28;20175;-74
2021/04/03 11:15:26;;;;;;;2.83;1.30;;;12.60;1.00;;;;;;5060250;28;20195;-74
2021/04/03 11:21:25;;;;;;;1.17;1.03;;;12.80;1.00;;;;;;5059376;28;20317;-76
2021/04/03 11:24:01;;;;;;;2.00;1.27;;;13.00;1.00;;;;;;5073419;28;20440;-78
2021/04/03 11:26:49;;;;;;;5.23;1.70;;;13.20;1.00;;;;;;5054350;28;20404;-80
2021/04/03 11:29:14;;;;;;;2.90;1.20;;;13.60;1.00;;;;;;5070568;28;20415;-74
2021/04/03 11:31:40;;;;;;;5.50;1.40;;;;;;;;;;5073911;28;20388;-74
2021/04/03 11:34:06;;;;;;;6.00;1.80;;;13.40;1.00;;;;;;5073890;28;20638;-74
2021/04/03 11:36:32;;;;;;;2.10;1.10;;;;;;;;;;5074162;28;20393;-74
2021/04/03 11:38:58;;;;;;;2.47;1.20;;;13.00;1.00;;;;;;5063210;28;20176;-74
2021/04/03 11:41:25;;;;;;;2.23;1.10;;;12.90;1.00;;;;;;5054651;28;20461;-74
2021/04/03 11:44:02;;;;;;;1.63;1.30;;;13.00;1.00;;;;;;5054184;28;20166;-74
2021/04/03 11:46:27;;;;;;;6.23;1.07;;;13.00;1.00;;;;;;5054390;28;20414;-74
2021/04/03 11:48:54;;;;;;;2.17;1.33;;;;;;;;;;5059428;28;20512;-74
2021/04/03 11:51:19;;;;;;;3.17;1.60;;;13.30;1.00;;;;;;5073909;28;20169;-74
2021/04/03 11:53:46;;;;;;;1.90;0.80;;;;;;;;;;5072698;28;20388;-74
2021/04/03 11:56:12;;;;;;;2.70;1.10;;;13.90;1.00;;;;;;5074283;28;20164;-71
2021/04/03 11:58:38;;;;;;;2.53;1.10;;;13.90;1.00;;;;;;5074250;28;20421;-71
2021/04/03 12:01:04;;;;;;;6.67;1.23;;;13.80;1.00;;;;;;5072733;28;20447;-71
2021/04/03 12:03:30;;;;;;;2.03;1.13;;;13.60;1.00;;;;;;5070926;28;20159;-71
2021/04/03 12:05:56;;;;;;;1.77;0.90;;;13.50;1.00;;;;;;5053507;28;20160;-71
2021/04/03 12:08:22;;;;;;;4.20;0.90;;;13.10;1.00;;;;;;5053625;28;20399;-71
2021/04/03 12:10:50;;;;;;;2.10;1.00;;;13.00;1.00;;;;;;5054148;28;20414;-71
2021/04/03 12:13:16;;;;;;;2.13;0.83;;;13.00;1.00;;;;;;5053570;28;20403;-71
2021/04/03 12:15:42;;;;;;;5.20;1.50;;;;;;;;;;5053772;28;20833;-71
2021/04/03 12:18:08;;;;;;;1.77;0.70;;;13.10;1.00;;;;;;5053543;28;20398;-71
2021/04/03 12:20:34;;;;;;;1.53;0.70;;;13.20;1.00;;;;;;5053261;28;20511;-71
2021/04/03 12:23:00;;;;;;;3.20;0.90;;;13.20;1.00;;;;;;5067806;28;20184;-71
2021/04/03 12:25:27;;;;;;;4.87;0.80;;;;;;;;;;5053329;28;20437;-74
2021/04/03 12:27:52;;;;;;;1.70;1.10;;;13.30;1.00;;;;;;5053481;28;20467;-74
2021/04/03 12:30:19;;;;;;;3.60;1.10;;;13.60;1.00;;;;;;5072361;28;20474;-74
2021/04/03 12:32:49;;;;;;;1.90;0.70;;;13.60;1.00;;;;;;5073416;28;20170;-74
2021/04/03 12:35:15;;;;;;;3.37;1.00;;;;;;;;;;5073316;28;20764;-75
2021/04/03 12:37:55;;;;;;;3.93;1.30;;;;;;;;;;5053356;28;20403;-79
2021/04/03 12:41:07;;;;;;;2.07;0.73;;;14.00;1.00;;;;;;5060963;28;20460;-79
2021/04/03 12:43:43;;;;;;;4.60;0.90;;;14.00;1.00;;;;;;5072056;28;20747;-79
2021/04/03 12:49:55;;;;;;;28.97;1.07;;;13.70;1.00;;;;;;5074850;28;20412;-81
2021/04/03 12:52:49;;;;;;;1.53;0.77;;;13.80;1.00;;;;;;5073294;28;20488;-81
2021/04/03 12:58:18;;;;;;;2.83;1.07;;;14.00;1.00;;;;;;5054196;28;20447;-79
2021/04/03 13:04:55;;;;;;;3.33;0.90;;;13.90;1.00;;;;;;5072938;28;20162;-79
2021/04/03 13:08:07;;;;;;;3.93;1.47;;;14.30;1.00;;;;;;5075935;28;20894;-79
2021/04/03 13:13:54;;;;;;;1.90;1.00;;;;;;;;;;5076596;28;20473;-80
2021/04/03 13:19:44;;;;;;;3.43;1.43;;;15.10;1.00;;;;;;5060767;28;20462;-80
2021/04/03 13:22:19;;;;;;;3.03;1.17;;;;;;;;;;5076493;28;20417;-81
2021/04/03 13:27:49;;;;;;;5.23;1.33;;;;;;;;;;5076433;28;20416;-74
2021/04/03 13:30:16;;;;;;;1.70;1.03;;;14.80;1.00;;;;;;5075005;28;20424;-75
2021/04/03 13:32:41;;;;;;;3.83;1.37;;;14.80;1.00;;;;;;5076059;28;20490;-78
2021/04/03 13:35:08;;;;;;;8.03;1.47;;;;;;;;;;5076558;28;20835;-76
2021/04/03 13:37:44;;;;;;;6.30;1.20;;;14.60;1.00;;;;;;5076640;28;20175;-76
2021/04/03 13:40:10;;;;;;;3.40;1.40;;;14.60;1.00;;;;;;5076255;28;20487;-71
2021/04/03 13:42:36;;;;;;;2.00;0.90;;;14.60;1.00;;;;;;5075195;28;20436;-72
2021/04/03 13:45:03;;;;;;;8.27;1.70;;;14.20;1.00;;;;;;5074726;28;20372;-73
2021/04/03 13:47:29;;;;;;;6.50;1.60;;;14.10;1.00;;;;;;5068979;28;21099;-72
2021/04/03 13:49:55;;;;;;;1.90;1.17;;;14.10;1.00;;;;;;5075424;28;20425;-73
2021/04/03 13:52:21;;;;;;;1.17;1.03;;;14.40;1.00;;;;;;5075757;28;20197;-73
2021/04/03 13:54:47;;;;;;;1.87;1.13;;;14.50;1.00;;;;;;5075899;28;20785;-72
2021/04/03 13:57:12;;;;;;;3.70;1.40;;;14.70;1.00;;;;;;5062206;28;20179;-71
2021/04/03 13:59:38;;;;;;;2.53;1.53;;;14.70;1.00;;;;;;5055856;28;20160;-71
2021/04/03 14:02:04;;;;;;;3.67;1.30;;;;;;;;;;5055609;28;20221;-71
2021/04/03 14:04:31;;;;;;;4.30;1.33;;;;;;;;;;5055783;28;20247;-73
2021/04/03 14:06:56;;;;;;;3.93;1.30;;;14.60;1.00;;;;;;5070066;28;20856;-71
2021/04/03 14:09:22;;;;;;;3.03;1.47;;;;;;;;;;5085205;28;20420;-71
2021/04/03 14:11:48;;;;;;;4.53;1.33;;;;;;;;;;5096317;28;20231;-71
2021/04/03 14:14:15;;;;;;;2.50;1.20;;;;;;;;;;5091137;28;20428;-71